IBE28KL LEST-LESA
Flight info
| Callsign | IBE28KL |
|---|---|
| Flight time | 1h 4m |
| Altitude | 24000 |
| Route | FORNO N733 ZMR/N0418F230 |
| Aircraft | CRJX/M-SDFGIRWY/S |
Departure
| Time | 2026-05-08 05:32 |
|---|---|
| Airport | Santiago-Rosalía de Castro Airport (LEST) |
Arrival
| Time | 2026-05-08 06:37 |
|---|---|
| Airport | Salamanca Airport (LESA) |
| Time | Latitude | Longitude | Altitude | Speed | Heading |
|---|---|---|---|---|---|
| 2026-05-08 05:13 | 42.89281 | -8.42005 | 1204 ft | 0 kts | 165° |
| 2026-05-08 05:22 | 42.89285 | -8.42006 | 1204 ft | 3 kts | 165° |
| 2026-05-08 05:22 | 42.89311 | -8.42016 | 1204 ft | 4 kts | 165° |
| 2026-05-08 05:22 | 42.89337 | -8.42025 | 1204 ft | 4 kts | 165° |
| 2026-05-08 05:23 | 42.89361 | -8.42028 | 1204 ft | 4 kts | 195° |
| 2026-05-08 05:23 | 42.89385 | -8.42012 | 1204 ft | 4 kts | 212° |
| 2026-05-08 05:23 | 42.89406 | -8.41995 | 1204 ft | 4 kts | 224° |
| 2026-05-08 05:23 | 42.89414 | -8.41972 | 1204 ft | 4 kts | 245° |
| 2026-05-08 05:24 | 42.89425 | -8.41939 | 1204 ft | 4 kts | 242° |
| 2026-05-08 05:24 | 42.89440 | -8.41910 | 1204 ft | 4 kts | 221° |
| 2026-05-08 05:24 | 42.89451 | -8.41901 | 1204 ft | 4 kts | 148° |
| 2026-05-08 05:24 | 42.89447 | -8.41886 | 1204 ft | 1 kts | 92° |
| 2026-05-08 05:28 | 42.89448 | -8.41860 | 1204 ft | 6 kts | 83° |
| 2026-05-08 05:28 | 42.89469 | -8.41756 | 1199 ft | 17 kts | 56° |
| 2026-05-08 05:28 | 42.89601 | -8.41734 | 1195 ft | 24 kts | 347° |
| 2026-05-08 05:28 | 42.89782 | -8.41794 | 1195 ft | 30 kts | 346° |
| 2026-05-08 05:29 | 42.90001 | -8.41867 | 1195 ft | 35 kts | 346° |
| 2026-05-08 05:29 | 42.90254 | -8.41953 | 1195 ft | 40 kts | 346° |
| 2026-05-08 05:29 | 42.90540 | -8.42049 | 1195 ft | 44 kts | 346° |
| 2026-05-08 05:29 | 42.90853 | -8.42156 | 1195 ft | 48 kts | 346° |
| 2026-05-08 05:30 | 42.91053 | -8.42221 | 1195 ft | 7 kts | 347° |
| 2026-05-08 05:30 | 42.91064 | -8.42224 | 1195 ft | 1 kts | 347° |
| 2026-05-08 05:30 | 42.91078 | -8.42229 | 1195 ft | 3 kts | 347° |
| 2026-05-08 05:30 | 42.91106 | -8.42231 | 1195 ft | 5 kts | 11° |
| 2026-05-08 05:31 | 42.91134 | -8.42201 | 1194 ft | 5 kts | 70° |
| 2026-05-08 05:31 | 42.91149 | -8.42138 | 1193 ft | 9 kts | 70° |
| 2026-05-08 05:31 | 42.91150 | -8.42042 | 1192 ft | 11 kts | 108° |
| 2026-05-08 05:31 | 42.91101 | -8.41998 | 1191 ft | 9 kts | 170° |
| 2026-05-08 05:32 | 42.91015 | -8.41970 | 1191 ft | 32 kts | 166° |
| 2026-05-08 05:32 | 42.90528 | -8.41810 | 1196 ft | 110 kts | 166° |
| 2026-05-08 05:32 | 42.89606 | -8.41484 | 1400 ft | 151 kts | 165° |
| 2026-05-08 05:32 | 42.88637 | -8.41194 | 2411 ft | 139 kts | 171° |
| 2026-05-08 05:33 | 42.87692 | -8.40792 | 3293 ft | 132 kts | 163° |
| 2026-05-08 05:33 | 42.86812 | -8.40336 | 4117 ft | 137 kts | 162° |
| 2026-05-08 05:33 | 42.89281 | -8.42005 | 4445 ft | 5 kts | 165° |
| 2026-05-08 05:49 | 42.89280 | -8.42004 | 1204 ft | 0 kts | 156° |
| 2026-05-08 05:49 | 42.89276 | -8.41998 | 1204 ft | 0 kts | 113° |
| 2026-05-08 05:50 | 42.89276 | -8.41994 | 1204 ft | 1 kts | 72° |
| 2026-05-08 05:50 | 42.89278 | -8.41993 | 1204 ft | 0 kts | 37° |
| 2026-05-08 05:50 | 42.89297 | -8.41989 | 1204 ft | 11 kts | 8° |
| 2026-05-08 05:50 | 42.89411 | -8.41901 | 1204 ft | 21 kts | 46° |
| 2026-05-08 05:51 | 42.89497 | -8.41733 | 1197 ft | 23 kts | 37° |
| 2026-05-08 05:51 | 42.89626 | -8.41743 | 1195 ft | 21 kts | 345° |
| 2026-05-08 05:51 | 42.89787 | -8.41796 | 1195 ft | 27 kts | 346° |
| 2026-05-08 05:51 | 42.89990 | -8.41862 | 1195 ft | 32 kts | 345° |
| 2026-05-08 05:52 | 42.90224 | -8.41943 | 1196 ft | 37 kts | 346° |
| 2026-05-08 05:52 | 42.90489 | -8.42033 | 1195 ft | 41 kts | 346° |
| 2026-05-08 05:52 | 42.90769 | -8.42126 | 1195 ft | 36 kts | 346° |
| 2026-05-08 05:52 | 42.91014 | -8.42210 | 1195 ft | 27 kts | 346° |
| 2026-05-08 05:53 | 42.91148 | -8.42169 | 1194 ft | 19 kts | 70° |
| 2026-05-08 05:53 | 42.91106 | -8.42006 | 1191 ft | 21 kts | 158° |
| 2026-05-08 05:53 | 42.90722 | -8.41878 | 1194 ft | 96 kts | 166° |
| 2026-05-08 05:53 | 42.89851 | -8.41582 | 1245 ft | 155 kts | 166° |
| 2026-05-08 05:54 | 42.88838 | -8.41277 | 2170 ft | 143 kts | 169° |
| 2026-05-08 05:54 | 42.87858 | -8.40854 | 2981 ft | 154 kts | 163° |
| 2026-05-08 05:54 | 42.86841 | -8.40377 | 3928 ft | 154 kts | 163° |
| 2026-05-08 05:54 | 42.85750 | -8.39864 | 4498 ft | 180 kts | 164° |
| 2026-05-08 05:55 | 42.84479 | -8.39311 | 5037 ft | 202 kts | 165° |
| 2026-05-08 05:55 | 42.83102 | -8.38638 | 5570 ft | 225 kts | 154° |
| 2026-05-08 05:55 | 42.82075 | -8.36912 | 6426 ft | 245 kts | 112° |
| 2026-05-08 05:55 | 42.82068 | -8.34589 | 7674 ft | 256 kts | 76° |
| 2026-05-08 05:56 | 42.83070 | -8.32589 | 8809 ft | 263 kts | 40° |
| 2026-05-08 05:56 | 42.84661 | -8.31311 | 9828 ft | 268 kts | 36° |
| 2026-05-08 05:56 | 42.85811 | -8.29390 | 10719 ft | 261 kts | 73° |
| 2026-05-08 05:56 | 42.85942 | -8.27015 | 11676 ft | 250 kts | 108° |
| 2026-05-08 05:57 | 42.85139 | -8.24980 | 12674 ft | 244 kts | 129° |
| 2026-05-08 05:57 | 42.84121 | -8.23150 | 13641 ft | 246 kts | 131° |
| 2026-05-08 05:57 | 42.83040 | -8.21332 | 14515 ft | 249 kts | 133° |
| 2026-05-08 05:57 | 42.81912 | -8.19524 | 15349 ft | 251 kts | 134° |
| 2026-05-08 05:58 | 42.80754 | -8.17721 | 16220 ft | 254 kts | 134° |
| 2026-05-08 05:58 | 42.79565 | -8.15921 | 17056 ft | 257 kts | 135° |
| 2026-05-08 05:58 | 42.78366 | -8.14089 | 17876 ft | 262 kts | 131° |
| 2026-05-08 05:58 | 42.77334 | -8.12024 | 18627 ft | 266 kts | 125° |
| 2026-05-08 05:59 | 42.76367 | -8.09845 | 19301 ft | 271 kts | 124° |
| 2026-05-08 05:59 | 42.75385 | -8.07634 | 20002 ft | 274 kts | 125° |
| 2026-05-08 05:59 | 42.74357 | -8.05427 | 20673 ft | 278 kts | 126° |
| 2026-05-08 05:59 | 42.73296 | -8.03209 | 21388 ft | 280 kts | 126° |
| 2026-05-08 06:00 | 42.72246 | -8.01004 | 22060 ft | 283 kts | 126° |
| 2026-05-08 06:00 | 42.71163 | -7.98738 | 22694 ft | 287 kts | 126° |
| 2026-05-08 06:00 | 42.70066 | -7.96436 | 23318 ft | 292 kts | 126° |
| 2026-05-08 06:00 | 42.68937 | -7.94071 | 23617 ft | 306 kts | 126° |
| 2026-05-08 06:01 | 42.67746 | -7.91577 | 23749 ft | 323 kts | 126° |
| 2026-05-08 06:01 | 42.66490 | -7.88944 | 23821 ft | 341 kts | 126° |
| 2026-05-08 06:01 | 42.65168 | -7.86164 | 23856 ft | 359 kts | 126° |
| 2026-05-08 06:01 | 42.63775 | -7.83251 | 23876 ft | 376 kts | 126° |
| 2026-05-08 06:02 | 42.62323 | -7.80217 | 23877 ft | 391 kts | 126° |
| 2026-05-08 06:02 | 42.60807 | -7.77067 | 23884 ft | 405 kts | 126° |
| 2026-05-08 06:02 | 42.59258 | -7.73846 | 23881 ft | 417 kts | 125° |
| 2026-05-08 06:02 | 42.57652 | -7.70498 | 23880 ft | 429 kts | 126° |
| 2026-05-08 06:03 | 42.55994 | -7.67060 | 23878 ft | 439 kts | 125° |
| 2026-05-08 06:03 | 42.54307 | -7.63550 | 23876 ft | 448 kts | 125° |
| 2026-05-08 06:03 | 42.52579 | -7.59980 | 23863 ft | 456 kts | 126° |
| 2026-05-08 06:03 | 42.50829 | -7.56350 | 23855 ft | 464 kts | 126° |
| 2026-05-08 06:04 | 42.49054 | -7.52670 | 23874 ft | 470 kts | 126° |
| 2026-05-08 06:04 | 42.47245 | -7.48945 | 23867 ft | 475 kts | 126° |
| 2026-05-08 06:04 | 42.46400 | -7.47069 | 24844 ft | 225 kts | 126° |
| 2026-05-08 06:04 | 42.45697 | -7.45420 | 26153 ft | 178 kts | 126° |
| 2026-05-08 06:05 | 42.45131 | -7.44047 | 26863 ft | 165 kts | 127° |
| 2026-05-08 06:05 | 42.44520 | -7.42573 | 26535 ft | 200 kts | 126° |
| 2026-05-08 06:05 | 42.43749 | -7.40770 | 26217 ft | 234 kts | 126° |
| 2026-05-08 06:05 | 42.42904 | -7.38939 | 26778 ft | 227 kts | 131° |
| 2026-05-08 06:06 | 42.41749 | -7.37412 | 26737 ft | 243 kts | 154° |
| 2026-05-08 06:06 | 42.40122 | -7.36483 | 26651 ft | 265 kts | 152° |
| 2026-05-08 06:06 | 42.38730 | -7.34695 | 26628 ft | 293 kts | 126° |
| 2026-05-08 06:06 | 42.37972 | -7.32014 | 26719 ft | 316 kts | 110° |
| 2026-05-08 06:07 | 42.37294 | -7.29121 | 26796 ft | 329 kts | 116° |
| 2026-05-08 06:07 | 42.36209 | -7.26358 | 26804 ft | 334 kts | 127° |
| 2026-05-08 06:07 | 42.34892 | -7.23824 | 26804 ft | 331 kts | 129° |
| 2026-05-08 06:07 | 42.33557 | -7.21341 | 26683 ft | 324 kts | 129° |
| 2026-05-08 06:08 | 42.32238 | -7.18844 | 26260 ft | 327 kts | 128° |
| 2026-05-08 06:08 | 42.30960 | -7.16298 | 25994 ft | 327 kts | 127° |
| 2026-05-08 06:08 | 42.29690 | -7.13745 | 25745 ft | 326 kts | 127° |
| 2026-05-08 06:08 | 42.28425 | -7.11203 | 25528 ft | 325 kts | 127° |
| 2026-05-08 06:09 | 42.27159 | -7.08676 | 25303 ft | 324 kts | 128° |
| 2026-05-08 06:09 | 42.25906 | -7.06182 | 25088 ft | 324 kts | 127° |
| 2026-05-08 06:09 | 42.24652 | -7.03675 | 24970 ft | 320 kts | 127° |
| 2026-05-08 06:09 | 42.23414 | -7.01203 | 24910 ft | 315 kts | 127° |
| 2026-05-08 06:10 | 42.22199 | -6.98775 | 24888 ft | 310 kts | 128° |
| 2026-05-08 06:10 | 42.20993 | -6.96374 | 24877 ft | 308 kts | 128° |
| 2026-05-08 06:10 | 42.19789 | -6.93979 | 24874 ft | 310 kts | 128° |
| 2026-05-08 06:10 | 42.18572 | -6.91558 | 24876 ft | 312 kts | 127° |
| 2026-05-08 06:11 | 42.17349 | -6.89127 | 24894 ft | 315 kts | 128° |
| 2026-05-08 06:11 | 42.16110 | -6.86674 | 24891 ft | 318 kts | 128° |
| 2026-05-08 06:11 | 42.14862 | -6.84198 | 24871 ft | 321 kts | 128° |
| 2026-05-08 06:11 | 42.13602 | -6.81699 | 24872 ft | 324 kts | 128° |
| 2026-05-08 06:12 | 42.12330 | -6.79183 | 24883 ft | 326 kts | 128° |
| 2026-05-08 06:12 | 42.11045 | -6.76644 | 24885 ft | 329 kts | 127° |
| 2026-05-08 06:12 | 42.09756 | -6.74083 | 24890 ft | 332 kts | 127° |
| 2026-05-08 06:12 | 42.08477 | -6.71526 | 24896 ft | 334 kts | 127° |
| 2026-05-08 06:13 | 42.07174 | -6.68925 | 24897 ft | 336 kts | 127° |
| 2026-05-08 06:13 | 42.05856 | -6.66315 | 24891 ft | 338 kts | 127° |
| 2026-05-08 06:13 | 42.04528 | -6.63697 | 24891 ft | 339 kts | 128° |
| 2026-05-08 06:13 | 42.03189 | -6.61069 | 24914 ft | 341 kts | 128° |
| 2026-05-08 06:14 | 42.01843 | -6.58428 | 24916 ft | 343 kts | 128° |
| 2026-05-08 06:14 | 42.00491 | -6.55777 | 24918 ft | 344 kts | 128° |
| 2026-05-08 06:14 | 41.99133 | -6.53108 | 24920 ft | 346 kts | 128° |
| 2026-05-08 06:14 | 41.97772 | -6.50438 | 24896 ft | 347 kts | 128° |
| 2026-05-08 06:15 | 41.96425 | -6.47795 | 24891 ft | 347 kts | 128° |
| 2026-05-08 06:15 | 41.95059 | -6.45120 | 24881 ft | 347 kts | 128° |
| 2026-05-08 06:15 | 41.93689 | -6.42439 | 24891 ft | 348 kts | 128° |
| 2026-05-08 06:15 | 41.92314 | -6.39751 | 24903 ft | 349 kts | 128° |
| 2026-05-08 06:16 | 41.90939 | -6.37064 | 24917 ft | 350 kts | 128° |
| 2026-05-08 06:16 | 41.89556 | -6.34371 | 24910 ft | 350 kts | 128° |
| 2026-05-08 06:16 | 41.88172 | -6.31675 | 24908 ft | 351 kts | 128° |
| 2026-05-08 06:16 | 41.86783 | -6.28970 | 24902 ft | 352 kts | 128° |
| 2026-05-08 06:17 | 41.84006 | -6.23563 | 24892 ft | 352 kts | 128° |
| 2026-05-08 06:17 | 41.82614 | -6.20859 | 24889 ft | 352 kts | 128° |
| 2026-05-08 06:17 | 41.81239 | -6.18191 | 24884 ft | 352 kts | 128° |
| 2026-05-08 06:18 | 41.79846 | -6.15490 | 24885 ft | 352 kts | 128° |
| 2026-05-08 06:18 | 41.78448 | -6.12789 | 24878 ft | 352 kts | 128° |
| 2026-05-08 06:18 | 41.77052 | -6.10091 | 24883 ft | 352 kts | 128° |
| 2026-05-08 06:18 | 41.75658 | -6.07397 | 24874 ft | 352 kts | 128° |
| 2026-05-08 06:19 | 41.74265 | -6.04704 | 24887 ft | 352 kts | 128° |
| 2026-05-08 06:19 | 41.72870 | -6.02012 | 24888 ft | 352 kts | 128° |
| 2026-05-08 06:19 | 41.71472 | -5.99316 | 24889 ft | 352 kts | 128° |
| 2026-05-08 06:19 | 41.70074 | -5.96624 | 24890 ft | 352 kts | 128° |
| 2026-05-08 06:20 | 41.68674 | -5.93932 | 24890 ft | 352 kts | 128° |
| 2026-05-08 06:20 | 41.67274 | -5.91240 | 24893 ft | 352 kts | 128° |
| 2026-05-08 06:20 | 41.65872 | -5.88545 | 24894 ft | 353 kts | 128° |
| 2026-05-08 06:20 | 41.64469 | -5.85855 | 24898 ft | 353 kts | 128° |
| 2026-05-08 06:21 | 41.63066 | -5.83166 | 24902 ft | 353 kts | 128° |
| 2026-05-08 06:21 | 41.61654 | -5.80462 | 24841 ft | 355 kts | 128° |
| 2026-05-08 06:21 | 41.60255 | -5.77783 | 24817 ft | 356 kts | 128° |
| 2026-05-08 06:21 | 41.58811 | -5.75028 | 24490 ft | 367 kts | 128° |
| 2026-05-08 06:22 | 41.57327 | -5.72201 | 24173 ft | 375 kts | 128° |
| 2026-05-08 06:22 | 41.55828 | -5.69340 | 23782 ft | 374 kts | 128° |
| 2026-05-08 06:22 | 41.54321 | -5.66517 | 23041 ft | 371 kts | 132° |
| 2026-05-08 06:22 | 41.52409 | -5.64294 | 22342 ft | 362 kts | 147° |
| 2026-05-08 06:23 | 41.50333 | -5.62422 | 21667 ft | 357 kts | 150° |
| 2026-05-08 06:23 | 41.48178 | -5.60812 | 20938 ft | 352 kts | 156° |
| 2026-05-08 06:23 | 41.45967 | -5.59458 | 20253 ft | 348 kts | 159° |
| 2026-05-08 06:23 | 41.43765 | -5.58172 | 19609 ft | 344 kts | 159° |
| 2026-05-08 06:24 | 41.41582 | -5.56901 | 19014 ft | 339 kts | 159° |
| 2026-05-08 06:24 | 41.39432 | -5.55632 | 18423 ft | 336 kts | 158° |
| 2026-05-08 06:24 | 41.37323 | -5.54344 | 17676 ft | 332 kts | 158° |
| 2026-05-08 06:24 | 41.35247 | -5.53071 | 17004 ft | 324 kts | 158° |
| 2026-05-08 06:25 | 41.33268 | -5.51857 | 16576 ft | 310 kts | 158° |
| 2026-05-08 06:25 | 41.31347 | -5.50680 | 16103 ft | 299 kts | 158° |
| 2026-05-08 06:25 | 41.29468 | -5.49527 | 15382 ft | 295 kts | 158° |
| 2026-05-08 06:25 | 41.27614 | -5.48389 | 14687 ft | 292 kts | 157° |
| 2026-05-08 06:26 | 41.25776 | -5.47264 | 13997 ft | 289 kts | 157° |
| 2026-05-08 06:26 | 41.23957 | -5.46152 | 13281 ft | 286 kts | 156° |
| 2026-05-08 06:26 | 41.22156 | -5.45049 | 12548 ft | 283 kts | 157° |
| 2026-05-08 06:26 | 41.20378 | -5.43959 | 11827 ft | 279 kts | 157° |
| 2026-05-08 06:27 | 41.18637 | -5.42896 | 11117 ft | 276 kts | 157° |
| 2026-05-08 06:27 | 41.16902 | -5.41836 | 10422 ft | 273 kts | 157° |
| 2026-05-08 06:27 | 41.15237 | -5.40643 | 9673 ft | 273 kts | 143° |
| 2026-05-08 06:27 | 41.14125 | -5.38589 | 8892 ft | 277 kts | 120° |
| 2026-05-08 06:28 | 41.12962 | -5.36636 | 8069 ft | 268 kts | 148° |
| 2026-05-08 06:28 | 41.11232 | -5.35900 | 7287 ft | 262 kts | 181° |
| 2026-05-08 06:28 | 41.09520 | -5.36589 | 6509 ft | 261 kts | 213° |
| 2026-05-08 06:28 | 41.08181 | -5.38198 | 5924 ft | 254 kts | 224° |
| 2026-05-08 06:29 | 41.07039 | -5.39869 | 5437 ft | 244 kts | 235° |
| 2026-05-08 06:29 | 41.06618 | -5.41978 | 5122 ft | 237 kts | 273° |
| 2026-05-08 06:29 | 41.07248 | -5.43904 | 4986 ft | 227 kts | 312° |
| 2026-05-08 06:29 | 41.08591 | -5.44847 | 4930 ft | 219 kts | 352° |
| 2026-05-08 06:30 | 41.10086 | -5.44462 | 4914 ft | 226 kts | 33° |
| 2026-05-08 06:30 | 41.11103 | -5.42927 | 4935 ft | 223 kts | 66° |
| 2026-05-08 06:30 | 41.12003 | -5.41224 | 4908 ft | 230 kts | 47° |
| 2026-05-08 06:30 | 41.12759 | -5.40228 | 4918 ft | 231 kts | 49° |
| 2026-05-08 06:31 | 41.13512 | -5.38389 | 4909 ft | 228 kts | 83° |
| 2026-05-08 06:31 | 41.13122 | -5.35768 | 4915 ft | 220 kts | 128° |
| 2026-05-08 06:31 | 41.11950 | -5.34548 | 4926 ft | 212 kts | 163° |
| 2026-05-08 06:31 | 41.10991 | -5.34376 | 4922 ft | 203 kts | 187° |
| 2026-05-08 06:32 | 41.09802 | -5.35097 | 4931 ft | 184 kts | 225° |
| 2026-05-08 06:32 | 41.09096 | -5.36369 | 4981 ft | 160 kts | 235° |
| 2026-05-08 06:32 | 41.08526 | -5.37550 | 4934 ft | 145 kts | 237° |
| 2026-05-08 06:32 | 41.08021 | -5.38669 | 4895 ft | 138 kts | 237° |
| 2026-05-08 06:33 | 41.07555 | -5.39751 | 4872 ft | 132 kts | 238° |
| 2026-05-08 06:33 | 41.07121 | -5.40785 | 4902 ft | 128 kts | 238° |
| 2026-05-08 06:33 | 41.06682 | -5.41835 | 4946 ft | 132 kts | 238° |
| 2026-05-08 06:33 | 41.06050 | -5.42710 | 4912 ft | 136 kts | 203° |
| 2026-05-08 06:34 | 41.05105 | -5.42756 | 4982 ft | 135 kts | 177° |
| 2026-05-08 06:34 | 41.04189 | -5.42702 | 5147 ft | 133 kts | 181° |
| 2026-05-08 06:34 | 41.03256 | -5.43138 | 4990 ft | 154 kts | 209° |
| 2026-05-08 06:34 | 41.02421 | -5.44107 | 4741 ft | 157 kts | 222° |
| 2026-05-08 06:35 | 41.01681 | -5.45047 | 4452 ft | 142 kts | 220° |
| 2026-05-08 06:35 | 41.00964 | -5.45935 | 4109 ft | 140 kts | 219° |
| 2026-05-08 06:35 | 41.00211 | -5.46722 | 3796 ft | 135 kts | 212° |
| 2026-05-08 06:35 | 40.99410 | -5.47313 | 3497 ft | 128 kts | 205° |
| 2026-05-08 06:36 | 40.98616 | -5.47843 | 3255 ft | 130 kts | 207° |
| 2026-05-08 06:36 | 40.97808 | -5.48408 | 3045 ft | 129 kts | 208° |
| 2026-05-08 06:36 | 40.97023 | -5.48946 | 2846 ft | 128 kts | 207° |
| 2026-05-08 06:36 | 40.96235 | -5.49493 | 2668 ft | 125 kts | 209° |
| 2026-05-08 06:37 | 40.95491 | -5.50016 | 2597 ft | 114 kts | 207° |
| 2026-05-08 06:37 | 40.94957 | -5.50384 | 2592 ft | 36 kts | 207° |
| 2026-05-08 06:37 | 40.94806 | -5.50487 | 2589 ft | 14 kts | 205° |
| 2026-05-08 06:37 | 40.94727 | -5.50456 | 2588 ft | 13 kts | 119° |
| 2026-05-08 06:38 | 40.94688 | -5.50348 | 2593 ft | 11 kts | 119° |
| 2026-05-08 06:38 | 40.94662 | -5.50324 | 2597 ft | 7 kts | 171° |
| 2026-05-08 06:38 | 40.94574 | -5.50376 | 2591 ft | 18 kts | 211° |
| 2026-05-08 06:38 | 40.94456 | -5.50466 | 2593 ft | 21 kts | 209° |
| 2026-05-08 06:39 | 40.94368 | -5.50511 | 2598 ft | 0 kts | 176° |
| 2026-05-08 06:39 | 40.94360 | -5.50516 | 2590 ft | 2 kts | 216° |
| 2026-05-08 06:39 | 40.94319 | -5.50556 | 2593 ft | 13 kts | 212° |
| 2026-05-08 06:39 | 40.94227 | -5.50625 | 2595 ft | 16 kts | 209° |
| 2026-05-08 06:40 | 40.94145 | -5.50617 | 2590 ft | 11 kts | 130° |
| 2026-05-08 06:40 | 40.94103 | -5.50520 | 2594 ft | 14 kts | 119° |
| 2026-05-08 06:40 | 40.94065 | -5.50397 | 2596 ft | 15 kts | 116° |
| 2026-05-08 06:40 | 40.94036 | -5.50322 | 2596 ft | 1 kts | 103° |
| 2026-05-08 06:41 | 40.94037 | -5.50319 | 2596 ft | 0 kts | 84° |
| 2026-05-08 06:41 | 40.94041 | -5.50316 | 2591 ft | 0 kts | 355° |
| 2026-05-08 06:41 | 40.94042 | -5.50316 | 2591 ft | 0 kts | 354° |